createdAt,value
2019-01-26T00:00:53.923Z,97944.73
2019-01-26T00:03:24.746Z,97949.87
2019-01-26T00:05:55.638Z,97938.05
2019-01-26T00:08:26.171Z,97935.59
2019-01-26T00:10:56.714Z,97927.30
2019-01-26T00:13:27.305Z,97924.63
2019-01-26T00:15:57.979Z,97921.41
2019-01-26T00:18:28.782Z,97912.53
2019-01-26T00:20:59.709Z,97912.48
2019-01-26T00:23:30.214Z,97906.06
2019-01-26T00:26:00.778Z,97906.52
2019-01-26T00:28:31.919Z,97900.25
2019-01-26T00:31:02.832Z,97896.09
2019-01-26T00:33:33.683Z,97885.80
2019-01-26T00:36:04.383Z,97880.42
2019-01-26T00:38:34.882Z,97889.73
2019-01-26T00:41:06.097Z,97889.78
2019-01-26T00:43:36.795Z,97880.48
2019-01-26T00:46:07.338Z,97876.22
2019-01-26T00:48:37.920Z,97865.03
2019-01-26T00:51:08.727Z,97856.69
2019-01-26T00:53:39.344Z,97853.55
2019-01-26T00:56:10.013Z,97858.67
2019-01-26T00:58:40.728Z,97855.33
2019-01-26T01:01:11.402Z,97849.44
2019-01-26T01:03:41.973Z,97841.75
2019-01-26T01:06:12.723Z,97845.17
2019-01-26T01:08:43.213Z,97843.14
2019-01-26T01:11:13.831Z,97845.91
2019-01-26T01:13:44.616Z,97846.25
2019-01-26T01:16:16.367Z,97843.27
2019-01-26T01:18:46.897Z,97839.96
2019-01-26T01:21:17.710Z,97844.01
2019-01-26T01:23:48.310Z,97850.20
2019-01-26T01:26:18.865Z,97853.45
2019-01-26T01:28:49.773Z,97853.80
2019-01-26T01:31:20.612Z,97864.73
2019-01-26T01:33:51.170Z,97867.19
2019-01-26T01:36:21.991Z,97865.55
2019-01-26T01:38:52.900Z,97860.28
2019-01-26T01:41:23.385Z,97851.48
2019-01-26T01:43:54.285Z,97844.37
2019-01-26T01:46:26.666Z,97855.22
2019-01-26T01:48:57.259Z,97844.59
2019-01-26T01:51:28.108Z,97845.36
2019-01-26T01:53:58.886Z,97847.36
2019-01-26T01:56:29.481Z,97843.33
2019-01-26T01:58:59.977Z,97838.63
2019-01-26T02:01:31.128Z,97839.69
2019-01-26T02:04:02.207Z,97836.02
2019-01-26T02:06:33.083Z,97824.25
2019-01-26T02:09:04.855Z,97823.63
2019-01-26T02:11:35.361Z,97815.79
2019-01-26T02:14:06.419Z,97821.94
2019-01-26T02:16:36.963Z,97808.31
2019-01-26T02:19:07.458Z,97809.09
2019-01-26T02:21:38.014Z,97811.73
2019-01-26T02:24:08.848Z,97814.97
2019-01-26T02:26:39.459Z,97815.19
2019-01-26T02:29:10.096Z,97808.81
2019-01-26T02:31:40.892Z,97798.44
2019-01-26T02:34:11.391Z,97792.81
2019-01-26T02:36:42.001Z,97790.17
2019-01-26T02:39:12.844Z,97793.72
2019-01-26T02:41:43.381Z,97790.41
2019-01-26T02:44:13.947Z,97793.23
2019-01-26T02:46:44.580Z,97784.80
2019-01-26T02:49:15.126Z,97781.89
2019-01-26T02:51:45.676Z,97777.73
2019-01-26T02:54:18.952Z,97777.20
2019-01-26T02:56:49.446Z,97775.69
2019-01-26T02:59:20.007Z,97772.09
2019-01-26T03:01:50.532Z,97778.30
2019-01-26T03:04:21.222Z,97775.73
2019-01-26T03:06:52.029Z,97769.36
2019-01-26T03:09:22.584Z,97773.58
2019-01-26T03:11:53.125Z,97767.93
2019-01-26T03:14:23.624Z,97766.13
2019-01-26T03:16:54.172Z,97762.83
2019-01-26T03:19:25.303Z,97766.45
2019-01-26T03:21:56.123Z,97768.52
2019-01-26T03:24:26.953Z,97761.73
2019-01-26T03:26:57.440Z,97766.67
2019-01-26T03:29:28.141Z,97771.52
2019-01-26T03:32:00.772Z,97757.88
2019-01-26T03:34:31.370Z,97759.31
2019-01-26T03:37:02.446Z,97750.41
2019-01-26T03:39:33.210Z,97749.91
2019-01-26T03:42:05.617Z,97742.38
2019-01-26T03:44:36.033Z,97743.55
2019-01-26T03:47:13.495Z,97740.66
2019-01-26T03:49:39.030Z,97733.06
2019-01-26T03:52:09.569Z,97732.45
2019-01-26T03:54:40.214Z,97730.00
2019-01-26T03:57:10.732Z,97726.45
2019-01-26T03:59:41.258Z,97723.14
2019-01-26T04:02:12.091Z,97718.62
2019-01-26T04:04:42.769Z,97720.35
2019-01-26T04:07:13.295Z,97721.59
2019-01-26T04:09:43.802Z,97719.14
2019-01-26T04:12:14.501Z,97719.16
2019-01-26T04:14:45.094Z,97716.25
2019-01-26T04:17:21.774Z,97717.88
2019-01-26T04:19:49.183Z,97722.19
2019-01-26T04:22:19.686Z,97719.73
2019-01-26T04:24:50.222Z,97727.10
2019-01-26T04:27:21.011Z,97722.56
2019-01-26T04:29:51.512Z,97731.89
2019-01-26T04:32:22.152Z,97728.21
2019-01-26T04:34:52.670Z,97734.61
2019-01-26T04:37:23.444Z,97731.57
2019-01-26T04:39:54.267Z,97731.30
2019-01-26T04:42:24.773Z,97727.91
2019-01-26T04:44:55.358Z,97717.34
2019-01-26T04:47:30.716Z,97718.85
2019-01-26T04:49:59.481Z,97723.38
2019-01-26T04:52:30.286Z,97708.53
2019-01-26T04:55:00.826Z,97709.76
2019-01-26T04:57:31.591Z,97712.37
2019-01-26T05:00:02.239Z,97701.98
2019-01-26T05:02:33.361Z,97702.66
2019-01-26T05:05:04.702Z,97699.38
2019-01-26T05:07:35.220Z,97699.39
2019-01-26T05:10:07.064Z,97691.23
2019-01-26T05:12:37.649Z,97684.19
2019-01-26T05:15:10.673Z,97679.09
2019-01-26T05:17:41.269Z,97672.30
2019-01-26T05:20:16.169Z,97675.86
2019-01-26T05:22:46.662Z,97671.35
2019-01-26T05:25:17.682Z,97676.39
2019-01-26T05:27:48.343Z,97677.91
2019-01-26T05:30:30.353Z,97685.35
2019-01-26T05:33:01.145Z,97684.92
2019-01-26T05:35:31.645Z,97693.44
2019-01-26T05:38:02.398Z,97689.12
2019-01-26T05:40:33.521Z,97692.91
2019-01-26T05:43:04.389Z,97694.09
2019-01-26T05:45:34.986Z,97694.42
2019-01-26T05:48:06.112Z,97689.64
2019-01-26T05:50:36.641Z,97697.23
2019-01-26T05:53:07.272Z,97697.13
2019-01-26T05:55:37.762Z,97691.30
2019-01-26T05:58:08.473Z,97698.98
2019-01-26T06:00:38.986Z,97700.08
2019-01-26T06:03:09.527Z,97696.27
2019-01-26T06:05:40.415Z,97696.70
2019-01-26T06:08:11.177Z,97706.87
2019-01-26T06:10:41.711Z,97707.10
2019-01-26T06:13:12.451Z,97701.41
2019-01-26T06:15:42.989Z,97702.31
2019-01-26T06:18:13.622Z,97704.55
2019-01-26T06:20:44.300Z,97706.41
2019-01-26T06:23:14.829Z,97705.27
2019-01-26T06:25:45.462Z,97705.61
2019-01-26T06:28:17.077Z,97711.42
2019-01-26T06:30:47.629Z,97714.50
2019-01-26T06:33:18.410Z,97713.22
2019-01-26T06:35:49.155Z,97708.27
2019-01-26T06:38:19.674Z,97710.64
2019-01-26T06:40:50.404Z,97708.01
2019-01-26T06:43:21.210Z,97702.96
2019-01-26T06:45:51.755Z,97688.06
2019-01-26T06:48:22.621Z,97684.72
2019-01-26T06:50:54.766Z,97690.42
2019-01-26T06:53:25.372Z,97691.30
2019-01-26T06:55:56.378Z,97694.79
2019-01-26T06:58:29.363Z,97695.77
2019-01-26T07:00:59.936Z,97699.94
2019-01-26T07:03:30.942Z,97708.40
2019-01-26T07:06:07.802Z,97698.30
2019-01-26T07:08:38.566Z,97693.43
2019-01-26T07:11:10.224Z,97699.52
2019-01-26T07:13:40.729Z,97691.50
2019-01-26T07:16:11.960Z,97692.92
2019-01-26T07:18:46.176Z,97651.95
2019-01-26T07:21:17.999Z,97695.88
2019-01-26T07:23:48.533Z,97693.41
2019-01-26T07:26:19.211Z,97702.70
2019-01-26T07:28:49.742Z,97695.64
2019-01-26T07:31:21.135Z,97695.30
2019-01-26T07:33:51.734Z,97697.88
2019-01-26T07:36:22.564Z,97698.11
2019-01-26T07:38:53.076Z,97696.00
2019-01-26T07:41:23.921Z,97699.43
2019-01-26T07:43:54.785Z,97707.52
2019-01-26T07:46:25.794Z,97704.13
2019-01-26T07:48:56.604Z,97700.06
2019-01-26T07:51:27.244Z,97706.50
2019-01-26T07:53:58.884Z,97709.41
2019-01-26T07:56:29.548Z,97705.09
2019-01-26T07:59:00.172Z,97706.17
2019-01-26T08:01:30.948Z,97699.45
2019-01-26T08:04:01.712Z,97703.84
2019-01-26T08:06:32.744Z,97695.31
2019-01-26T08:09:06.106Z,97689.22
2019-01-26T08:11:36.683Z,97689.98
2019-01-26T08:14:09.842Z,97686.66
2019-01-26T08:16:40.773Z,97687.62
2019-01-26T08:19:11.349Z,97688.17
2019-01-26T08:21:41.902Z,97682.39
2019-01-26T08:24:12.718Z,97677.13
2019-01-26T08:26:43.496Z,97678.92
2019-01-26T08:29:14.170Z,97682.78
2019-01-26T08:31:44.722Z,97688.98
2019-01-26T08:34:16.742Z,97690.27
2019-01-26T08:36:47.427Z,97688.66
2019-01-26T08:39:18.287Z,97693.45
2019-01-26T08:41:48.987Z,97691.98
2019-01-26T08:44:19.959Z,97694.96
2019-01-26T08:46:50.690Z,97685.36
2019-01-26T08:49:25.195Z,97683.64
2019-01-26T08:51:55.862Z,97684.61
2019-01-26T08:54:26.715Z,97680.17
2019-01-26T08:56:57.233Z,97685.95
2019-01-26T08:59:27.953Z,97689.88
2019-01-26T09:02:16.588Z,97690.41
2019-01-26T09:04:47.428Z,97689.15
2019-01-26T09:07:18.072Z,97680.98
2019-01-26T09:09:48.896Z,97683.70
2019-01-26T09:12:19.813Z,97668.67
2019-01-26T09:14:50.334Z,97674.34
2019-01-26T09:17:21.259Z,97661.87
2019-01-26T09:19:52.203Z,97661.72
2019-01-26T09:22:23.019Z,97657.59
2019-01-26T09:24:53.897Z,97650.78
2019-01-26T09:27:24.753Z,97649.84
2019-01-26T09:29:55.373Z,97646.20
2019-01-26T09:32:26.118Z,97646.98
2019-01-26T09:34:57.834Z,97653.92
2019-01-26T09:37:28.403Z,97656.09
2019-01-26T09:39:59.267Z,97654.30
2019-01-26T09:42:31.847Z,97653.73
2019-01-26T09:45:02.740Z,97663.86
2019-01-26T09:47:33.899Z,97666.06
2019-01-26T09:50:05.773Z,97669.82
2019-01-26T09:52:36.387Z,97677.00
2019-01-26T09:55:09.243Z,97679.97
2019-01-26T09:57:40.067Z,97690.23
2019-01-26T10:00:16.286Z,97689.38
2019-01-26T10:02:47.095Z,97684.91
2019-01-26T10:05:18.311Z,97680.11
2019-01-26T10:07:49.045Z,97665.50
2019-01-26T10:10:20.514Z,97660.91
2019-01-26T10:12:51.406Z,97654.44
2019-01-26T10:15:22.667Z,97655.05
2019-01-26T10:17:53.484Z,97662.88
2019-01-26T10:20:29.509Z,97666.59
2019-01-26T10:23:00.301Z,97672.11
2019-01-26T10:25:31.303Z,97666.38
2019-01-26T10:28:11.007Z,97666.39
2019-01-26T10:30:46.502Z,97661.70
2019-01-26T10:33:18.828Z,97661.47
2019-01-26T10:36:08.367Z,97653.41
2019-01-26T10:38:43.916Z,97646.80
2019-01-26T10:41:36.645Z,97644.42
2019-01-26T10:44:07.988Z,97641.80
2019-01-26T10:46:38.556Z,97642.45
2019-01-26T10:49:09.123Z,97646.67
2019-01-26T10:51:39.944Z,97652.75
2019-01-26T10:54:10.613Z,97647.44
2019-01-26T10:56:41.143Z,97637.83
2019-01-26T10:59:11.934Z,97633.78
2019-01-26T11:01:42.489Z,97629.38
2019-01-26T11:04:13.450Z,97629.33
2019-01-26T11:06:44.055Z,97624.70
2019-01-26T11:09:15.236Z,97617.33
2019-01-26T11:11:52.808Z,97618.24
2019-01-26T11:14:23.657Z,97614.65
2019-01-26T11:16:54.244Z,97610.28
2019-01-26T11:19:25.157Z,97611.06
2019-01-26T11:21:55.766Z,97612.23
2019-01-26T11:24:26.430Z,97607.21
2019-01-26T11:26:57.011Z,97605.66
2019-01-26T11:29:28.193Z,97610.27
2019-01-26T11:31:59.019Z,97611.92
2019-01-26T11:34:29.891Z,97610.94
2019-01-26T11:37:00.423Z,97608.94
2019-01-26T11:39:31.308Z,97609.23
2019-01-26T11:42:02.024Z,97604.84
2019-01-26T11:44:32.549Z,97600.39
2019-01-26T11:47:05.850Z,97601.09
2019-01-26T11:49:37.262Z,97591.23
2019-01-26T11:52:09.525Z,97593.19
2019-01-26T11:54:59.688Z,97587.81
2019-01-26T11:57:33.201Z,97580.30
2019-01-26T12:00:28.034Z,97571.55
2019-01-26T12:03:10.671Z,97572.03
2019-01-26T12:06:03.278Z,97574.38
2019-01-26T12:08:34.391Z,97576.27
2019-01-26T12:11:04.963Z,97568.81
2019-01-26T12:13:35.504Z,97564.57
2019-01-26T12:16:07.276Z,97561.34
2019-01-26T12:18:38.089Z,97559.12
2019-01-26T12:21:08.807Z,97563.39
2019-01-26T12:23:39.427Z,97559.49
2019-01-26T12:26:10.053Z,97555.77
2019-01-26T12:28:40.610Z,97560.03
2019-01-26T12:31:11.281Z,97554.94
2019-01-26T12:34:02.822Z,97555.50
2019-01-26T12:36:33.568Z,97546.92
2019-01-26T12:39:06.148Z,97550.73
2019-01-26T12:41:36.721Z,97552.81
2019-01-26T12:44:07.308Z,97555.92
2019-01-26T12:46:38.101Z,97550.45
2019-01-26T12:49:09.140Z,97549.91
2019-01-26T12:51:39.793Z,97539.84
2019-01-26T12:54:10.586Z,97542.28
2019-01-26T12:56:41.270Z,97542.93
2019-01-26T12:59:13.886Z,97548.63
2019-01-26T13:01:44.610Z,97544.27
2019-01-26T13:04:16.362Z,97537.20
2019-01-26T13:06:49.935Z,97543.25
2019-01-26T13:09:20.610Z,97534.92
2019-01-26T13:11:51.679Z,97539.55
2019-01-26T13:14:22.725Z,97532.67
2019-01-26T13:16:53.427Z,97522.88
2019-01-26T13:19:24.391Z,97519.60
2019-01-26T13:21:54.930Z,97508.00
2019-01-26T13:24:26.576Z,97503.31
2019-01-26T13:26:57.248Z,97490.36
2019-01-26T13:29:29.216Z,97500.27
2019-01-26T13:31:59.937Z,97490.43
2019-01-26T13:34:30.555Z,97496.22
2019-01-26T13:37:01.367Z,97493.97
2019-01-26T13:39:32.261Z,97489.54
2019-01-26T13:42:02.888Z,97492.66
2019-01-26T13:44:33.770Z,97490.38
2019-01-26T13:47:04.361Z,97501.50
2019-01-26T13:49:35.565Z,97498.69
2019-01-26T13:52:06.491Z,97495.66
2019-01-26T13:54:37.381Z,97489.66
2019-01-26T13:57:10.606Z,97480.77
2019-01-26T13:59:41.285Z,97482.21
2019-01-26T14:02:15.013Z,97478.16
2019-01-26T14:04:45.750Z,97477.89
2019-01-26T14:07:16.509Z,97474.42
2019-01-26T14:09:47.365Z,97472.91
2019-01-26T14:12:18.698Z,97473.16
2019-01-26T14:14:49.306Z,97472.39
2019-01-26T14:17:20.507Z,97477.64
2019-01-26T14:19:51.594Z,97470.74
2019-01-26T14:22:22.622Z,97462.45
2019-01-26T14:24:53.580Z,97466.03
2019-01-26T14:27:24.440Z,97470.37
2019-01-26T14:29:55.473Z,97469.43
2019-01-26T14:32:26.562Z,97460.06
2019-01-26T14:34:57.430Z,97459.13
2019-01-26T14:37:28.633Z,97459.66
2019-01-26T14:39:59.531Z,97456.61
2019-01-26T14:42:30.474Z,97462.34
2019-01-26T14:45:01.033Z,97457.95
2019-01-26T14:47:31.911Z,97463.98
2019-01-26T14:50:02.477Z,97466.34
2019-01-26T14:52:33.684Z,97465.52
2019-01-26T14:55:05.559Z,97456.50
2019-01-26T14:57:36.419Z,97462.53
2019-01-26T15:00:11.862Z,97460.00
2019-01-26T15:02:42.480Z,97463.23
2019-01-26T15:05:14.731Z,97456.77
2019-01-26T15:07:45.555Z,97457.02
2019-01-26T15:10:16.178Z,97449.70
2019-01-26T15:12:46.790Z,97445.55
2019-01-26T15:15:19.310Z,97444.84
2019-01-26T15:17:49.972Z,97444.34
2019-01-26T15:20:30.352Z,97442.09
2019-01-26T15:23:13.057Z,97433.53
2019-01-26T15:25:43.758Z,97432.87
2019-01-26T15:28:14.627Z,97431.30
2019-01-26T15:30:45.480Z,97425.03
2019-01-26T15:33:16.563Z,97426.45
2019-01-26T15:35:47.499Z,97422.44
2019-01-26T15:38:19.259Z,97419.42
2019-01-26T15:40:49.920Z,97422.17
2019-01-26T15:43:20.759Z,97417.84
2019-01-26T15:45:53.224Z,97412.16
2019-01-26T15:48:23.876Z,97418.45
2019-01-26T15:50:54.485Z,97414.75
2019-01-26T15:53:25.530Z,97412.77
2019-01-26T15:55:56.290Z,97405.86
2019-01-26T15:58:26.895Z,97404.13
2019-01-26T16:00:57.620Z,97401.56
2019-01-26T16:03:28.483Z,97403.35
2019-01-26T16:05:59.008Z,97400.28
2019-01-26T16:08:29.845Z,97396.69
2019-01-26T16:11:00.552Z,97393.25
2019-01-26T16:13:31.178Z,97396.73
2019-01-26T16:16:02.075Z,97391.88
2019-01-26T16:18:52.950Z,97395.11
2019-01-26T16:21:26.000Z,97387.68
2019-01-26T16:23:57.680Z,97387.16
2019-01-26T16:26:28.926Z,97391.53
2019-01-26T16:28:59.631Z,97391.89
2019-01-26T16:31:30.788Z,97385.10
2019-01-26T16:34:01.395Z,97385.26
2019-01-26T16:36:31.972Z,97378.69
2019-01-26T16:39:05.582Z,97376.77
2019-01-26T16:41:36.842Z,97376.61
2019-01-26T16:44:07.528Z,97370.91
2019-01-26T16:46:38.223Z,97364.70
2019-01-26T16:49:08.851Z,97364.66
2019-01-26T16:51:39.689Z,97364.50
2019-01-26T16:54:13.470Z,97362.98
2019-01-26T16:56:44.092Z,97357.35
2019-01-26T16:59:15.113Z,97357.57
2019-01-26T17:01:45.703Z,97355.05
2019-01-26T17:04:16.781Z,97352.11
2019-01-26T17:06:47.305Z,97334.77
2019-01-26T17:09:19.184Z,97340.55
2019-01-26T17:11:49.731Z,97340.72
2019-01-26T17:14:20.780Z,97337.91
2019-01-26T17:16:51.288Z,97336.95
2019-01-26T17:19:22.178Z,97334.48
2019-01-26T17:21:52.893Z,97332.60
2019-01-26T17:24:23.899Z,97328.61
2019-01-26T17:26:54.807Z,97323.83
2019-01-26T17:29:25.728Z,97321.81
2019-01-26T17:31:56.584Z,97317.09
2019-01-26T17:34:30.401Z,97316.45
2019-01-26T17:36:59.899Z,97314.50
2019-01-26T17:39:30.789Z,97314.30
2019-01-26T17:42:01.753Z,97307.11
2019-01-26T17:44:32.935Z,97307.66
2019-01-26T17:47:04.244Z,97305.17
2019-01-26T17:49:35.037Z,97299.42
2019-01-26T17:52:05.931Z,97297.78
2019-01-26T17:54:36.745Z,97300.22
2019-01-26T17:57:08.313Z,97298.20
2019-01-26T17:59:40.773Z,97297.77
2019-01-26T18:02:11.347Z,97294.19
2019-01-26T18:04:42.070Z,97283.02
2019-01-26T18:07:13.073Z,97275.59
2019-01-26T18:09:43.871Z,97275.77
2019-01-26T18:12:14.924Z,97272.13
2019-01-26T18:14:46.047Z,97267.48
2019-01-26T18:17:16.883Z,97267.26
2019-01-26T18:19:47.443Z,97268.50
2019-01-26T18:22:19.111Z,97263.84
2019-01-26T18:24:50.064Z,97259.73
2019-01-26T18:27:20.991Z,97261.24
2019-01-26T18:29:51.731Z,97257.80
2019-01-26T18:32:22.611Z,97256.25
2019-01-26T18:34:53.261Z,97254.33
2019-01-26T18:37:25.143Z,97248.03
2019-01-26T18:39:56.115Z,97250.58
2019-01-26T18:42:27.105Z,97246.17
2019-01-26T18:44:59.327Z,97241.86
2019-01-26T18:47:30.338Z,97244.16
2019-01-26T18:50:00.873Z,97236.28
2019-01-26T18:52:31.516Z,97237.77
2019-01-26T18:55:02.093Z,97229.91
2019-01-26T18:57:32.976Z,97228.97
2019-01-26T19:00:04.782Z,97231.63
2019-01-26T19:02:35.332Z,97231.09
2019-01-26T19:05:11.976Z,97230.50
2019-01-26T19:07:42.872Z,97226.16
2019-01-26T19:10:15.171Z,97215.12
2019-01-26T19:12:46.145Z,97214.57
2019-01-26T19:15:20.821Z,97207.86
2019-01-26T19:17:51.381Z,97197.39
2019-01-26T19:20:22.534Z,97200.59
2019-01-26T19:22:53.166Z,97194.09
2019-01-26T19:25:24.197Z,97197.69
2019-01-26T19:27:55.041Z,97190.23
2019-01-26T19:30:29.781Z,97182.15
2019-01-26T19:33:02.301Z,97177.83
2019-01-26T19:35:33.575Z,97172.73
2019-01-26T19:38:04.130Z,97169.08
2019-01-26T19:40:35.298Z,97163.45
2019-01-26T19:43:06.069Z,97171.42
2019-01-26T19:45:37.088Z,97161.17
2019-01-26T19:48:08.190Z,97159.81
2019-01-26T19:50:39.382Z,97163.76
2019-01-26T19:53:10.368Z,97154.61
2019-01-26T19:55:41.005Z,97156.92
2019-01-26T19:58:12.040Z,97153.57
2019-01-26T20:00:42.604Z,97146.69
2019-01-26T20:03:13.277Z,97138.92
2019-01-26T20:05:47.982Z,97135.84
2019-01-26T20:08:16.336Z,97131.16
2019-01-26T20:10:47.130Z,97127.45
2019-01-26T20:13:19.702Z,97123.69
2019-01-26T20:15:50.370Z,97117.27
2019-01-26T20:18:21.411Z,97119.14
2019-01-26T20:20:53.145Z,97116.88
2019-01-26T20:23:24.061Z,97107.88
2019-01-26T20:25:55.079Z,97101.70
2019-01-26T20:28:25.796Z,97100.70
2019-01-26T20:30:56.610Z,97098.22
2019-01-26T20:33:27.413Z,97098.48
2019-01-26T20:35:57.967Z,97088.12
2019-01-26T20:38:29.289Z,97083.38
2019-01-26T20:41:00.006Z,97079.64
2019-01-26T20:43:30.846Z,97071.02
2019-01-26T20:46:01.621Z,97066.87
2019-01-26T20:48:32.725Z,97069.84
2019-01-26T20:51:03.462Z,97064.30
2019-01-26T20:53:34.107Z,97058.59
2019-01-26T20:56:05.195Z,97049.75
2019-01-26T20:58:35.825Z,97043.73
2019-01-26T21:01:07.086Z,97036.22
2019-01-26T21:03:37.743Z,97025.61
2019-01-26T21:06:08.410Z,97022.59
2019-01-26T21:08:39.099Z,97016.57
2019-01-26T21:11:09.909Z,97022.39
2019-01-26T21:13:40.515Z,97008.81
2019-01-26T21:16:11.341Z,97005.84
2019-01-26T21:18:42.192Z,96996.00
2019-01-26T21:21:13.117Z,96986.61
2019-01-26T21:23:43.797Z,96984.48
2019-01-26T21:26:14.816Z,96979.44
2019-01-26T21:28:46.049Z,96975.52
2019-01-26T21:31:20.312Z,96965.16
2019-01-26T21:33:54.958Z,96959.31
2019-01-26T21:36:25.705Z,96952.66
2019-01-26T21:38:56.458Z,96948.73
2019-01-26T21:41:27.357Z,96945.27
2019-01-26T21:43:58.304Z,96950.96
2019-01-26T21:46:29.822Z,96942.62
2019-01-26T21:49:00.384Z,96939.03
2019-01-26T21:51:38.826Z,96936.80
2019-01-26T21:54:04.901Z,96925.95
2019-01-26T21:56:36.956Z,96932.81
2019-01-26T21:59:07.639Z,96928.16
2019-01-26T22:01:38.457Z,96915.81
2019-01-26T22:04:09.584Z,96912.66
2019-01-26T22:06:40.257Z,96908.41
2019-01-26T22:09:11.555Z,96912.68
2019-01-26T22:11:42.212Z,96914.02
2019-01-26T22:14:12.781Z,96910.67
2019-01-26T22:16:43.357Z,96904.56
2019-01-26T22:19:13.895Z,96899.68
2019-01-26T22:21:46.119Z,96897.40
2019-01-26T22:24:17.119Z,96897.52
2019-01-26T22:26:47.756Z,96891.21
2019-01-26T22:29:19.635Z,96880.70
2019-01-26T22:31:50.205Z,96882.02
2019-01-26T22:34:21.047Z,96883.27
2019-01-26T22:36:51.630Z,96877.13
2019-01-26T22:39:22.506Z,96873.30
2019-01-26T22:41:53.288Z,96866.67
2019-01-26T22:44:24.168Z,96869.31
2019-01-26T22:46:54.715Z,96861.86
2019-01-26T22:49:25.521Z,96864.36
2019-01-26T22:51:56.638Z,96862.30
2019-01-26T22:54:27.459Z,96861.06
2019-01-26T22:56:58.322Z,96863.38
2019-01-26T22:59:29.716Z,96857.52
2019-01-26T23:02:00.505Z,96845.09
2019-01-26T23:05:11.833Z,96835.81
2019-01-26T23:08:14.200Z,96836.09
2019-01-26T23:11:10.523Z,96824.19
2019-01-26T23:14:01.140Z,96811.83
2019-01-26T23:17:31.699Z,96804.13
2019-01-26T23:21:03.362Z,96790.30
2019-01-26T23:24:40.100Z,96779.41
2019-01-26T23:28:17.106Z,96780.52
2019-01-26T23:31:17.425Z,96772.56
2019-01-26T23:33:53.925Z,96767.38
2019-01-26T23:36:25.325Z,96762.54
2019-01-26T23:39:02.301Z,96756.73
2019-01-26T23:41:28.276Z,96757.17
2019-01-26T23:43:58.785Z,96756.84
2019-01-26T23:46:29.616Z,96757.59
2019-01-26T23:49:00.451Z,96749.41
2019-01-26T23:51:31.281Z,96741.31
2019-01-26T23:54:01.946Z,96740.89
2019-01-26T23:56:32.894Z,96726.50
2019-01-26T23:59:03.450Z,96724.97
